< Typhoon 196108 1961 Season Typhoon 196110 >
Typhoon 196109 (FLOSSIE)
General InformationTrack Information on Google Maps || Disaster Info.ResourceGoogle EarthGE AnimationAtom FeedGeoJSON
Detalied Best Track (Time Zone = UTC)
Year Month Day Hour Lat. Long. Pressure (hPa) Wind (kt) Class Image Chart
1961 7 11 18 11.5 146.0 1008 0 2 -- Chart
1961 7 12 00 11.3 145.0 1008 0 2 -- Chart
1961 7 12 06 11.2 144.0 1004 0 2 -- Chart
1961 7 12 12 11.4 143.4 1006 0 2 -- Chart
1961 7 12 18 11.6 142.4 1006 0 2 -- Chart
1961 7 13 00 11.8 141.0 1006 0 2 -- Chart
1961 7 13 06 12.3 139.2 1004 0 2 -- Chart
1961 7 13 12 13.0 138.0 1006 0 2 -- Chart
1961 7 13 18 14.0 137.0 1004 0 2 -- Chart
1961 7 14 00 15.2 135.8 1002 0 2 -- Chart
1961 7 14 06 16.0 135.0 1002 0 2 -- Chart
1961 7 14 12 16.6 134.0 1002 0 2 -- Chart
1961 7 14 18 17.0 133.3 1002 0 2 -- Chart
1961 7 15 00 17.3 132.7 1002 0 2 -- Chart
1961 7 15 06 17.6 131.9 1002 0 2 -- Chart
1961 7 15 12 17.8 131.2 1002 0 2 -- Chart
1961 7 15 18 18.0 130.2 1000 0 2 -- Chart
1961 7 16 00 18.0 129.0 1000 0 2 -- Chart
1961 7 16 06 18.0 127.7 998 0 2 -- Chart
1961 7 16 12 17.5 126.5 996 0 9 -- Chart
1961 7 16 18 17.1 125.3 996 0 9 -- Chart
1961 7 17 00 16.7 124.3 996 0 9 -- Chart
1961 7 17 06 16.2 123.5 996 0 9 -- Chart
1961 7 17 12 16.5 122.0 996 0 9 -- Chart
1961 7 17 18 17.2 120.8 996 0 9 -- Chart
1961 7 18 00 18.1 120.1 996 0 9 -- Chart
1961 7 18 06 18.9 119.3 992 0 9 -- Chart
1961 7 18 12 19.5 118.2 992 0 9 -- Chart
1961 7 18 18 20.1 117.5 992 0 9 -- Chart
1961 7 19 00 21.0 116.3 992 0 9 -- Chart
1961 7 19 06 22.0 115.4 996 0 9 -- Chart
1961 7 19 12 23.0 114.5 998 0 9 -- Chart
1961 7 19 18 23.4 113.0 1000 0 2 -- Chart
Japan Meteorological Agency Best Track Data | Correction Date : 1989-06-01
< Typhoon 196108 1961 Season Typhoon 196110 >

Help